Terminal Aerodrome Forecast
Issued by NWS

Home | Current Version | Previous Version | Graphics & Text | Print | Product List | Glossary On
Versions: 1 2 3 4 5 6 7 8 9 10 11 12 13 14 15 16 17 18 19 20 21 22 23 24 25
000
FTUS43 KUNR 300000 AAA
TAFGCC
TAF AMD
KGCC 300011Z 3000/3024 15012KT P6SM SCT030 BKN100
     FM300200 15008KT P6SM -SHRA SCT020 OVC040
      TEMPO 3002/3004 3SM TSRA BKN020 OVC040CB
     FM300800 30011KT P6SM -SHRA OVC020
     FM301000 33018G28KT P6SM -SHRA OVC010
     FM301500 31018KT P6SM SCT020 BKN050=

USA.gov is the U.S. government's official web portal to all federal, state and local government web resources and services.